バロー の空港の天気 - METARとTAF

Barrow, Wiley Post-Will Rogers Memorial Airport ( PABR / BRW ) - アメリカ アラスカ州バロー
飛行場実況気象(Metar)
観測時間05/28 01:07 AKDT (05/28 09:07 UTC)
風向・風速北東 2m/s
視程400m
天気現象
全天を覆う雲 鉛直視程 90m
気温0.6℃
湿度96%
気圧1012hPa
METARPABR 280907Z AUTO 05003KT 1/4SM R08/2400V2800FT FG VV003 01/00 A2989 RMK AO2 T00060000 TSNO
過去の天気等 Google飛行場航空写真 Wunderground天気予報

過去48時間のMETAR

飛行場予報(TAF)
発表時間: 5/28 00:59 AKDT (5/28 08:59 UTC)
予報対象時間: 28日1時 AKDT ~ 28日22時 AKDT
風向・風速北北東 2m/s
視程10km以上
天気現象もや 周辺でしゅう雨
全天を覆う雲 雲底高度 180m
28日1時 AKDT ~ 28日3時 AKDT に一時的に
視程800m
天気現象
全天を覆う雲 鉛直視程 90m
28日4時 AKDT から
風向・風速西 4m/s
視程10km以上
天気現象周辺でしゅう雨
全天の8割程度の雲 雲底高度 460m
全天を覆う雲 雲底高度 760m
28日7時 AKDT から
風向・風速西北西 4m/s
視程10km以上
天気現象周辺でしゅう雨
全天の8割程度の雲 雲底高度 460m
全天を覆う雲 雲底高度 760m
PABR 280859Z 2809/2906 02003KT 6SM BR VCSH OVC006
TEMPO 2809/2811 1/2SM FG VV003
FM281200 28008KT P6SM VCSH BKN015 OVC025
FM281500 30008KT P6SM VCSH BKN015 OVC025